sensor_id;sensor_type;location;lat;lon;timestamp;pressure;altitude;pressure_sealevel;temperature;humidity
64388;BME280;50709;52.648;4.764;2023-05-02T00:01:48;102131.06;;;17.87;56.57
64388;BME280;50709;52.648;4.764;2023-05-02T00:04:13;102137.34;;;17.72;56.33
64388;BME280;50709;52.648;4.764;2023-05-02T00:06:39;102132.75;;;18.03;55.11
64388;BME280;50709;52.648;4.764;2023-05-02T00:09:06;102135.59;;;17.68;55.98
64388;BME280;50709;52.648;4.764;2023-05-02T00:11:31;102144.44;;;17.62;56.19
64388;BME280;50709;52.648;4.764;2023-05-02T00:13:57;102137.66;;;17.19;56.52
64388;BME280;50709;52.648;4.764;2023-05-02T00:16:22;102123.38;;;17.54;56.41
64388;BME280;50709;52.648;4.764;2023-05-02T00:18:48;102138.25;;;17.66;56.40
64388;BME280;50709;52.648;4.764;2023-05-02T00:21:14;102132.13;;;17.65;56.29
64388;BME280;50709;52.648;4.764;2023-05-02T00:23:39;102145.34;;;17.64;55.58
64388;BME280;50709;52.648;4.764;2023-05-02T00:26:10;102156.81;;;17.57;56.18
64388;BME280;50709;52.648;4.764;2023-05-02T00:28:36;102159.38;;;17.72;55.90
64388;BME280;50709;52.648;4.764;2023-05-02T00:31:03;102155.81;;;17.73;55.94
64388;BME280;50709;52.648;4.764;2023-05-02T00:33:28;102172.00;;;17.11;55.59
64388;BME280;50709;52.648;4.764;2023-05-02T00:35:54;102167.59;;;17.13;57.21
64388;BME280;50709;52.648;4.764;2023-05-02T00:38:19;102173.50;;;17.62;56.02
64388;BME280;50709;52.648;4.764;2023-05-02T00:40:49;102175.31;;;17.54;55.83
64388;BME280;50709;52.648;4.764;2023-05-02T00:43:16;102156.03;;;17.39;54.93
64388;BME280;50709;52.648;4.764;2023-05-02T00:45:43;102106.94;;;17.01;55.04
64388;BME280;50709;52.648;4.764;2023-05-02T00:48:09;102155.34;;;16.97;56.76
64388;BME280;50709;52.648;4.764;2023-05-02T00:50:41;102158.88;;;16.93;57.35
64388;BME280;50709;52.648;4.764;2023-05-02T00:53:09;102153.59;;;17.01;57.24
64388;BME280;50709;52.648;4.764;2023-05-02T00:55:35;102158.03;;;16.64;56.55
64388;BME280;50709;52.648;4.764;2023-05-02T00:58:03;102143.97;;;16.64;58.31
64388;BME280;50709;52.648;4.764;2023-05-02T01:07:05;102164.94;;;17.17;56.70
64388;BME280;50709;52.648;4.764;2023-05-02T01:09:52;102170.19;;;17.26;56.11
64388;BME280;50709;52.648;4.764;2023-05-02T01:15:06;102179.00;;;17.25;56.47
64388;BME280;50709;52.648;4.764;2023-05-02T01:17:32;102172.84;;;17.21;55.60
64388;BME280;50709;52.648;4.764;2023-05-02T01:20:02;102184.34;;;17.06;56.16
64388;BME280;50709;52.648;4.764;2023-05-02T01:22:30;102183.50;;;16.75;54.93
64388;BME280;50709;52.648;4.764;2023-05-02T01:27:46;102188.69;;;17.15;57.16
64388;BME280;50709;52.648;4.764;2023-05-02T01:30:13;102187.84;;;17.11;56.62
64388;BME280;50709;52.648;4.764;2023-05-02T01:32:44;102185.25;;;17.02;57.20
64388;BME280;50709;52.648;4.764;2023-05-02T01:35:13;102195.78;;;16.88;56.98
64388;BME280;50709;52.648;4.764;2023-05-02T01:37:42;102191.44;;;16.64;55.29
64388;BME280;50709;52.648;4.764;2023-05-02T01:40:09;102195.72;;;17.19;56.81
64388;BME280;50709;52.648;4.764;2023-05-02T01:42:37;102206.38;;;16.84;55.17
64388;BME280;50709;52.648;4.764;2023-05-02T01:45:04;102219.59;;;16.56;57.25
64388;BME280;50709;52.648;4.764;2023-05-02T01:47:32;102227.47;;;16.76;56.48
64388;BME280;50709;52.648;4.764;2023-05-02T01:50:00;102223.09;;;16.59;57.49
64388;BME280;50709;52.648;4.764;2023-05-02T01:52:27;102219.59;;;16.42;56.90
64388;BME280;50709;52.648;4.764;2023-05-02T01:54:56;102233.66;;;16.53;56.82
64388;BME280;50709;52.648;4.764;2023-05-02T01:57:24;102223.97;;;16.26;56.61
64388;BME280;50709;52.648;4.764;2023-05-02T01:59:49;102239.81;;;16.47;55.20
64388;BME280;50709;52.648;4.764;2023-05-02T02:02:16;102231.91;;;16.32;57.48
64388;BME280;50709;52.648;4.764;2023-05-02T02:04:44;102232.75;;;16.08;57.83
64388;BME280;50709;52.648;4.764;2023-05-02T02:07:13;102254.72;;;16.04;56.94
64388;BME280;50709;52.648;4.764;2023-05-02T02:09:39;102241.53;;;15.97;56.06
64388;BME280;50709;52.648;4.764;2023-05-02T02:12:09;102236.22;;;15.84;56.67
64388;BME280;50709;52.648;4.764;2023-05-02T02:14:37;102263.53;;;16.20;57.13
64388;BME280;50709;52.648;4.764;2023-05-02T02:17:11;102261.81;;;16.48;57.05
64388;BME280;50709;52.648;4.764;2023-05-02T02:19:38;102254.72;;;16.08;55.99
64388;BME280;50709;52.648;4.764;2023-05-02T02:22:06;102253.84;;;16.05;58.01
64388;BME280;50709;52.648;4.764;2023-05-02T02:24:34;102260.91;;;16.40;56.29
64388;BME280;50709;52.648;4.764;2023-05-02T02:27:01;102253.66;;;15.57;56.38
64388;BME280;50709;52.648;4.764;2023-05-02T02:29:27;102243.25;;;15.91;57.40
64388;BME280;50709;52.648;4.764;2023-05-02T02:31:52;102271.38;;;15.92;56.87
64388;BME280;50709;52.648;4.764;2023-05-02T02:34:18;102269.59;;;15.86;58.93
64388;BME280;50709;52.648;4.764;2023-05-02T02:36:48;102275.78;;;16.07;58.13
64388;BME280;50709;52.648;4.764;2023-05-02T02:44:55;102264.34;;;15.92;54.63
64388;BME280;50709;52.648;4.764;2023-05-02T02:50:37;102281.94;;;16.07;56.18
64388;BME280;50709;52.648;4.764;2023-05-02T02:53:16;102300.47;;;16.32;57.43
64388;BME280;50709;52.648;4.764;2023-05-02T02:56:04;102307.28;;;15.71;55.46
64388;BME280;50709;52.648;4.764;2023-05-02T02:58:57;102298.63;;;16.03;57.87
64388;BME280;50709;52.648;4.764;2023-05-02T03:01:26;102311.81;;;16.06;57.44
64388;BME280;50709;52.648;4.764;2023-05-02T03:03:56;102305.72;;;16.30;57.86
64388;BME280;50709;52.648;4.764;2023-05-02T03:06:22;102304.81;;;16.16;57.81
64388;BME280;50709;52.648;4.764;2023-05-02T03:08:48;102313.63;;;16.37;56.80
64388;BME280;50709;52.648;4.764;2023-05-02T03:11:13;102325.78;;;15.84;56.57
64388;BME280;50709;52.648;4.764;2023-05-02T03:13:39;102321.41;;;15.86;56.84
64388;BME280;50709;52.648;4.764;2023-05-02T03:16:38;102331.94;;;15.83;57.44
64388;BME280;50709;52.648;4.764;2023-05-02T03:19:05;102330.06;;;15.64;57.58
64388;BME280;50709;52.648;4.764;2023-05-02T03:21:31;102347.75;;;15.81;58.02
64388;BME280;50709;52.648;4.764;2023-05-02T03:24:00;102344.16;;;15.74;57.20
64388;BME280;50709;52.648;4.764;2023-05-02T03:26:26;102353.06;;;15.95;57.86
64388;BME280;50709;52.648;4.764;2023-05-02T03:28:53;102354.69;;;15.77;57.40
64388;BME280;50709;52.648;4.764;2023-05-02T03:31:18;102361.81;;;15.89;56.83
64388;BME280;50709;52.648;4.764;2023-05-02T03:33:44;102339.91;;;16.01;57.71
64388;BME280;50709;52.648;4.764;2023-05-02T03:36:10;102358.31;;;15.90;54.60
64388;BME280;50709;52.648;4.764;2023-05-02T03:38:36;102364.31;;;15.64;57.71
64388;BME280;50709;52.648;4.764;2023-05-02T03:41:01;102362.59;;;15.73;56.59
64388;BME280;50709;52.648;4.764;2023-05-02T03:43:28;102338.72;;;15.45;56.15
64388;BME280;50709;52.648;4.764;2023-05-02T03:45:53;102379.22;;;15.64;58.27
64388;BME280;50709;52.648;4.764;2023-05-02T03:48:19;102367.00;;;15.75;57.75
64388;BME280;50709;52.648;4.764;2023-05-02T03:50:44;102366.81;;;15.44;56.71
64388;BME280;50709;52.648;4.764;2023-05-02T03:53:09;102366.53;;;15.01;55.21
64388;BME280;50709;52.648;4.764;2023-05-02T03:55:39;102382.56;;;15.35;58.06
64388;BME280;50709;52.648;4.764;2023-05-02T03:58:06;102380.06;;;15.61;57.12
64388;BME280;50709;52.648;4.764;2023-05-02T04:00:32;102370.50;;;15.70;55.95
64388;BME280;50709;52.648;4.764;2023-05-02T04:03:00;102374.84;;;15.69;56.56
64388;BME280;50709;52.648;4.764;2023-05-02T04:05:25;102386.28;;;15.71;57.06
64388;BME280;50709;52.648;4.764;2023-05-02T04:07:50;102385.97;;;15.22;56.30
64388;BME280;50709;52.648;4.764;2023-05-02T04:10:16;102396.41;;;15.08;55.63
64388;BME280;50709;52.648;4.764;2023-05-02T04:13:02;102405.34;;;15.33;57.18
64388;BME280;50709;52.648;4.764;2023-05-02T04:15:28;102397.44;;;15.31;57.40
64388;BME280;50709;52.648;4.764;2023-05-02T04:17:54;102396.63;;;15.39;57.09
64388;BME280;50709;52.648;4.764;2023-05-02T04:20:19;102415.94;;;15.39;56.16
64388;BME280;50709;52.648;4.764;2023-05-02T04:22:46;102399.41;;;15.59;55.72
64388;BME280;50709;52.648;4.764;2023-05-02T04:25:12;102421.41;;;15.75;56.57
64388;BME280;50709;52.648;4.764;2023-05-02T04:27:38;102418.78;;;15.73;55.86
64388;BME280;50709;52.648;4.764;2023-05-02T04:30:03;102432.03;;;15.84;54.45
64388;BME280;50709;52.648;4.764;2023-05-02T04:32:29;102424.75;;;15.47;55.57
64388;BME280;50709;52.648;4.764;2023-05-02T04:34:57;102433.72;;;15.74;55.81
64388;BME280;50709;52.648;4.764;2023-05-02T04:37:23;102437.25;;;15.79;55.57
64388;BME280;50709;52.648;4.764;2023-05-02T04:39:48;102430.31;;;15.88;54.67
64388;BME280;50709;52.648;4.764;2023-05-02T04:42:14;102441.72;;;15.82;57.23
64388;BME280;50709;52.648;4.764;2023-05-02T04:44:39;102442.41;;;15.61;55.94
64388;BME280;50709;52.648;4.764;2023-05-02T04:47:04;102452.72;;;15.33;55.39
64388;BME280;50709;52.648;4.764;2023-05-02T04:49:30;102461.53;;;15.34;57.47
64388;BME280;50709;52.648;4.764;2023-05-02T04:51:56;102445.72;;;15.32;56.35
64388;BME280;50709;52.648;4.764;2023-05-02T04:54:22;102461.63;;;15.49;56.12
64388;BME280;50709;52.648;4.764;2023-05-02T04:56:47;102462.38;;;15.29;57.13
64388;BME280;50709;52.648;4.764;2023-05-02T04:59:13;102468.19;;;14.94;55.93
64388;BME280;50709;52.648;4.764;2023-05-02T05:01:38;102479.88;;;15.27;57.54
64388;BME280;50709;52.648;4.764;2023-05-02T05:04:03;102477.13;;;15.13;55.90
64388;BME280;50709;52.648;4.764;2023-05-02T05:06:29;102476.69;;;15.67;56.60
64388;BME280;50709;52.648;4.764;2023-05-02T05:08:56;102475.63;;;15.43;56.36
64388;BME280;50709;52.648;4.764;2023-05-02T05:11:21;102487.84;;;15.32;56.22
64388;BME280;50709;52.648;4.764;2023-05-02T05:13:47;102491.59;;;15.62;55.75
64388;BME280;50709;52.648;4.764;2023-05-02T05:16:12;102488.19;;;15.78;55.32
64388;BME280;50709;52.648;4.764;2023-05-02T05:18:38;102487.09;;;15.48;54.73
64388;BME280;50709;52.648;4.764;2023-05-02T05:21:06;102488.28;;;14.88;54.96
64388;BME280;50709;52.648;4.764;2023-05-02T05:23:35;102485.78;;;15.03;57.73
64388;BME280;50709;52.648;4.764;2023-05-02T05:26:11;102496.75;;;15.50;56.22
64388;BME280;50709;52.648;4.764;2023-05-02T05:28:37;102495.13;;;14.73;56.95
64388;BME280;50709;52.648;4.764;2023-05-02T05:31:06;102514.09;;;14.47;56.15
64388;BME280;50709;52.648;4.764;2023-05-02T05:33:32;102509.19;;;14.74;56.83
64388;BME280;50709;52.648;4.764;2023-05-02T05:38:30;102507.13;;;15.33;55.06
64388;BME280;50709;52.648;4.764;2023-05-02T05:40:55;102513.22;;;15.25;54.17
64388;BME280;50709;52.648;4.764;2023-05-02T05:43:20;102510.78;;;15.48;53.97
64388;BME280;50709;52.648;4.764;2023-05-02T05:45:46;102513.16;;;15.19;54.75
64388;BME280;50709;52.648;4.764;2023-05-02T05:48:11;102531.78;;;15.44;55.31
64388;BME280;50709;52.648;4.764;2023-05-02T05:50:37;102533.63;;;15.53;52.91
64388;BME280;50709;52.648;4.764;2023-05-02T05:53:02;102537.22;;;15.61;52.64
64388;BME280;50709;52.648;4.764;2023-05-02T05:55:27;102545.09;;;15.58;53.67
64388;BME280;50709;52.648;4.764;2023-05-02T05:57:53;102551.59;;;16.03;54.99
64388;BME280;50709;52.648;4.764;2023-05-02T06:00:18;102555.16;;;16.05;55.15
64388;BME280;50709;52.648;4.764;2023-05-02T06:02:44;102562.44;;;16.50;55.47
64388;BME280;50709;52.648;4.764;2023-05-02T06:05:09;102551.19;;;17.02;52.46
64388;BME280;50709;52.648;4.764;2023-05-02T06:07:34;102549.50;;;17.28;54.45
64388;BME280;50709;52.648;4.764;2023-05-02T06:10:00;102551.22;;;16.95;52.50
64388;BME280;50709;52.648;4.764;2023-05-02T06:12:25;102562.66;;;17.05;51.89
64388;BME280;50709;52.648;4.764;2023-05-02T06:14:51;102554.81;;;17.72;53.50
64388;BME280;50709;52.648;4.764;2023-05-02T06:17:16;102569.78;;;17.71;47.89
64388;BME280;50709;52.648;4.764;2023-05-02T06:19:42;102579.47;;;17.77;53.69
64388;BME280;50709;52.648;4.764;2023-05-02T06:22:07;102587.34;;;17.21;46.98
64388;BME280;50709;52.648;4.764;2023-05-02T06:24:35;102583.81;;;17.14;51.82
64388;BME280;50709;52.648;4.764;2023-05-02T06:27:01;102589.03;;;16.90;47.18
64388;BME280;50709;52.648;4.764;2023-05-02T06:29:27;102590.00;;;17.29;54.01
64388;BME280;50709;52.648;4.764;2023-05-02T06:31:55;102584.75;;;17.55;52.39
64388;BME280;50709;52.648;4.764;2023-05-02T06:34:21;102583.84;;;17.84;52.74
64388;BME280;50709;52.648;4.764;2023-05-02T06:36:53;102590.91;;;17.62;53.27
64388;BME280;50709;52.648;4.764;2023-05-02T06:39:19;102599.72;;;18.15;52.87
64388;BME280;50709;52.648;4.764;2023-05-02T06:41:45;102605.91;;;18.15;52.57
64388;BME280;50709;52.648;4.764;2023-05-02T06:44:10;102619.13;;;18.09;52.37
64388;BME280;50709;52.648;4.764;2023-05-02T06:46:36;102607.66;;;17.58;52.08
64388;BME280;50709;52.648;4.764;2023-05-02T06:49:01;102613.84;;;18.00;53.09
64388;BME280;50709;52.648;4.764;2023-05-02T06:51:46;102619.16;;;18.14;52.54
64388;BME280;50709;52.648;4.764;2023-05-02T06:54:12;102592.66;;;17.58;51.24
64388;BME280;50709;52.648;4.764;2023-05-02T06:56:39;102620.00;;;17.99;53.05
64388;BME280;50709;52.648;4.764;2023-05-02T06:59:04;102635.00;;;18.06;52.15
64388;BME280;50709;52.648;4.764;2023-05-02T07:01:30;102632.34;;;18.00;52.93
64388;BME280;50709;52.648;4.764;2023-05-02T07:03:55;102630.59;;;18.05;47.68
64388;BME280;50709;52.648;4.764;2023-05-02T07:06:21;102647.28;;;17.61;52.03
64388;BME280;50709;52.648;4.764;2023-05-02T07:08:46;102630.56;;;17.68;48.74
64388;BME280;50709;52.648;4.764;2023-05-02T07:11:11;102632.31;;;17.66;51.18
64388;BME280;50709;52.648;4.764;2023-05-02T07:13:37;102656.00;;;17.27;46.91
64388;BME280;50709;52.648;4.764;2023-05-02T07:16:02;102645.50;;;17.54;52.27
64388;BME280;50709;52.648;4.764;2023-05-02T07:18:28;102649.94;;;17.65;47.28
64388;BME280;50709;52.648;4.764;2023-05-02T07:20:53;102656.91;;;17.34;47.92
64388;BME280;50709;52.648;4.764;2023-05-02T07:23:19;102643.53;;;16.89;49.26
64388;BME280;50709;52.648;4.764;2023-05-02T07:25:46;102649.94;;;17.81;53.14
64388;BME280;50709;52.648;4.764;2023-05-02T07:28:12;102627.91;;;17.83;47.98
64388;BME280;50709;52.648;4.764;2023-05-02T07:30:37;102653.47;;;17.88;53.12
64388;BME280;50709;52.648;4.764;2023-05-02T07:33:03;102664.03;;;17.77;49.17
64388;BME280;50709;52.648;4.764;2023-05-02T07:35:28;102654.31;;;17.65;52.41
64388;BME280;50709;52.648;4.764;2023-05-02T07:37:54;102658.75;;;17.80;52.00
64388;BME280;50709;52.648;4.764;2023-05-02T07:40:19;102648.94;;;17.22;48.49
64388;BME280;50709;52.648;4.764;2023-05-02T07:42:45;102669.31;;;17.72;51.29
64388;BME280;50709;52.648;4.764;2023-05-02T07:45:10;102664.03;;;17.75;47.90
64388;BME280;50709;52.648;4.764;2023-05-02T07:47:36;102668.44;;;17.89;48.45
64388;BME280;50709;52.648;4.764;2023-05-02T07:50:02;102674.66;;;18.03;46.10
64388;BME280;50709;52.648;4.764;2023-05-02T07:52:30;102665.59;;;17.05;49.13
64388;BME280;50709;52.648;4.764;2023-05-02T07:54:56;102678.84;;;17.18;50.47
64388;BME280;50709;52.648;4.764;2023-05-02T07:57:21;102679.66;;;17.04;46.27
64388;BME280;50709;52.648;4.764;2023-05-02T07:59:47;102700.72;;;16.92;51.31
64388;BME280;50709;52.648;4.764;2023-05-02T08:02:13;102701.00;;;17.66;49.13
64388;BME280;50709;52.648;4.764;2023-05-02T08:04:39;102697.25;;;16.97;50.36
64388;BME280;50709;52.648;4.764;2023-05-02T08:07:05;102679.88;;;17.77;47.79
64388;BME280;50709;52.648;4.764;2023-05-02T08:09:30;102688.53;;;17.23;50.11
64388;BME280;50709;52.648;4.764;2023-05-02T08:11:56;102687.78;;;17.66;53.15
64388;BME280;50709;52.648;4.764;2023-05-02T08:14:22;102698.44;;;17.94;51.81
64388;BME280;50709;52.648;4.764;2023-05-02T08:16:49;102706.19;;;17.34;50.79
64388;BME280;50709;52.648;4.764;2023-05-02T08:19:14;102704.09;;;16.69;45.42
64388;BME280;50709;52.648;4.764;2023-05-02T08:21:41;102683.34;;;17.45;51.27
64388;BME280;50709;52.648;4.764;2023-05-02T08:24:06;102717.66;;;17.45;50.50
64388;BME280;50709;52.648;4.764;2023-05-02T08:26:32;102723.88;;;17.58;50.75
64388;BME280;50709;52.648;4.764;2023-05-02T08:28:58;102684.31;;;17.78;51.86
64388;BME280;50709;52.648;4.764;2023-05-02T08:31:23;102718.72;;;18.13;51.94
64388;BME280;50709;52.648;4.764;2023-05-02T08:33:49;102728.38;;;17.90;46.59
64388;BME280;50709;52.648;4.764;2023-05-02T08:36:15;102698.41;;;17.91;51.85
64388;BME280;50709;52.648;4.764;2023-05-02T08:38:42;102710.75;;;17.86;50.21
64388;BME280;50709;52.648;4.764;2023-05-02T08:41:16;102688.66;;;17.63;50.26
64388;BME280;50709;52.648;4.764;2023-05-02T08:43:42;102688.69;;;17.57;49.96
64388;BME280;50709;52.648;4.764;2023-05-02T08:46:09;102730.91;;;17.53;47.36
64388;BME280;50709;52.648;4.764;2023-05-02T08:48:36;102719.63;;;18.03;51.58
64388;BME280;50709;52.648;4.764;2023-05-02T08:51:02;102730.91;;;17.53;44.02
64388;BME280;50709;52.648;4.764;2023-05-02T08:53:31;102701.81;;;17.40;48.03
64388;BME280;50709;52.648;4.764;2023-05-02T08:55:58;102738.03;;;17.77;48.91
64388;BME280;50709;52.648;4.764;2023-05-02T08:58:24;102713.31;;;17.56;51.43
64388;BME280;50709;52.648;4.764;2023-05-02T09:00:50;102711.56;;;17.63;50.80
64388;BME280;50709;52.648;4.764;2023-05-02T09:03:22;102752.91;;;17.47;48.48
64388;BME280;50709;52.648;4.764;2023-05-02T09:05:56;102751.25;;;17.78;47.12
64388;BME280;50709;52.648;4.764;2023-05-02T09:08:26;102743.22;;;17.40;44.30
64388;BME280;50709;52.648;4.764;2023-05-02T09:10:51;102745.09;;;17.87;50.70
64388;BME280;50709;52.648;4.764;2023-05-02T09:13:36;102755.72;;;18.03;50.67
64388;BME280;50709;52.648;4.764;2023-05-02T09:16:13;102749.59;;;18.21;50.07
64388;BME280;50709;52.648;4.764;2023-05-02T09:18:41;102746.91;;;18.08;47.45
64388;BME280;50709;52.648;4.764;2023-05-02T09:21:16;102767.19;;;18.06;49.88
64388;BME280;50709;52.648;4.764;2023-05-02T09:23:49;102757.53;;;18.22;50.51
64388;BME280;50709;52.648;4.764;2023-05-02T09:26:15;102724.81;;;17.89;50.16
64388;BME280;50709;52.648;4.764;2023-05-02T09:28:46;102761.94;;;18.15;50.72
64388;BME280;50709;52.648;4.764;2023-05-02T09:31:19;102761.91;;;18.34;49.62
64388;BME280;50709;52.648;4.764;2023-05-02T09:33:46;102777.78;;;18.28;50.33
64388;BME280;50709;52.648;4.764;2023-05-02T09:36:17;102763.69;;;18.49;49.93
64388;BME280;50709;52.648;4.764;2023-05-02T09:38:45;102768.09;;;18.25;45.80
64388;BME280;50709;52.648;4.764;2023-05-02T09:41:11;102769.88;;;18.46;49.76
64388;BME280;50709;52.648;4.764;2023-05-02T09:43:37;102769.88;;;18.28;49.34
64388;BME280;50709;52.648;4.764;2023-05-02T09:48:30;102764.53;;;18.09;41.16
64388;BME280;50709;52.648;4.764;2023-05-02T09:50:56;102756.63;;;18.19;49.83
64388;BME280;50709;52.648;4.764;2023-05-02T09:53:26;102734.53;;;17.90;39.91
64388;BME280;50709;52.648;4.764;2023-05-02T09:55:59;102789.25;;;18.30;46.61
64388;BME280;50709;52.648;4.764;2023-05-02T09:58:25;102777.66;;;17.80;40.29
64388;BME280;50709;52.648;4.764;2023-05-02T10:00:50;102797.75;;;17.35;48.35
64388;BME280;50709;52.648;4.764;2023-05-02T10:03:17;102757.41;;;17.80;48.06
64388;BME280;50709;52.648;4.764;2023-05-02T10:05:44;102778.69;;;18.38;49.09
64388;BME280;50709;52.648;4.764;2023-05-02T10:08:11;102785.75;;;18.57;48.68
64388;BME280;50709;52.648;4.764;2023-05-02T10:10:39;102804.22;;;18.34;49.28
64388;BME280;50709;52.648;4.764;2023-05-02T10:13:07;102802.47;;;18.24;46.55
64388;BME280;50709;52.648;4.764;2023-05-02T10:15:35;102793.63;;;18.06;44.33
64388;BME280;50709;52.648;4.764;2023-05-02T10:18:06;102798.94;;;18.17;48.84
64388;BME280;50709;52.648;4.764;2023-05-02T10:20:34;102806.91;;;18.60;48.08
64388;BME280;50709;52.648;4.764;2023-05-02T10:23:01;102792.78;;;18.29;46.66
64388;BME280;50709;52.648;4.764;2023-05-02T10:25:27;102807.78;;;18.24;48.55
64388;BME280;50709;52.648;4.764;2023-05-02T10:27:55;102792.78;;;18.58;45.19
64388;BME280;50709;52.648;4.764;2023-05-02T10:30:23;102802.47;;;18.22;40.63
64388;BME280;50709;52.648;4.764;2023-05-02T10:32:50;102798.94;;;18.43;47.75
64388;BME280;50709;52.648;4.764;2023-05-02T10:35:17;102798.97;;;18.62;44.11
64388;BME280;50709;52.648;4.764;2023-05-02T10:37:42;102804.25;;;18.36;44.86
64388;BME280;50709;52.648;4.764;2023-05-02T10:40:10;102812.19;;;18.53;45.06
64388;BME280;50709;52.648;4.764;2023-05-02T10:42:37;102806.03;;;18.64;47.37
64388;BME280;50709;52.648;4.764;2023-05-02T10:45:05;102776.03;;;18.45;42.03
64388;BME280;50709;52.648;4.764;2023-05-02T10:47:35;102813.00;;;17.93;48.81
64388;BME280;50709;52.648;4.764;2023-05-02T10:50:02;102816.63;;;18.49;48.63
64388;BME280;50709;52.648;4.764;2023-05-02T10:52:39;102783.09;;;18.62;47.66
64388;BME280;50709;52.648;4.764;2023-05-02T10:55:22;102803.38;;;18.32;45.52
64388;BME280;50709;52.648;4.764;2023-05-02T11:00:30;102807.78;;;18.79;47.13
64388;BME280;50709;52.648;4.764;2023-05-02T11:02:56;102812.19;;;18.74;47.66
64388;BME280;50709;52.648;4.764;2023-05-02T11:05:23;102814.84;;;18.97;46.42
64388;BME280;50709;52.648;4.764;2023-05-02T11:07:48;102830.72;;;19.04;45.93
64388;BME280;50709;52.648;4.764;2023-05-02T11:15:12;102825.41;;;18.87;47.46
64388;BME280;50709;52.648;4.764;2023-05-02T11:20:26;102828.94;;;18.48;46.38
64388;BME280;50709;52.648;4.764;2023-05-02T11:22:53;102818.34;;;18.39;39.74
64388;BME280;50709;52.648;4.764;2023-05-02T11:25:55;102821.91;;;18.71;44.77
64388;BME280;50709;52.648;4.764;2023-05-02T11:31:02;102826.31;;;18.99;44.46
64388;BME280;50709;52.648;4.764;2023-05-02T11:33:28;102828.94;;;18.78;46.88
64388;BME280;50709;52.648;4.764;2023-05-02T11:35:54;102830.75;;;18.91;47.13
64388;BME280;50709;52.648;4.764;2023-05-02T11:38:22;102827.19;;;19.03;41.78
64388;BME280;50709;52.648;4.764;2023-05-02T11:40:50;102843.97;;;18.96;46.60
64388;BME280;50709;52.648;4.764;2023-05-02T11:43:17;102841.31;;;19.01;46.78
64388;BME280;50709;52.648;4.764;2023-05-02T11:45:43;102834.25;;;18.92;45.48
64388;BME280;50709;52.648;4.764;2023-05-02T11:48:11;102834.25;;;19.01;47.03
64388;BME280;50709;52.648;4.764;2023-05-02T11:53:15;102852.75;;;19.15;40.13
64388;BME280;50709;52.648;4.764;2023-05-02T11:56:01;102831.59;;;18.56;45.60
64388;BME280;50709;52.648;4.764;2023-05-02T11:58:28;102862.50;;;19.11;46.11
64388;BME280;50709;52.648;4.764;2023-05-02T12:00:54;102863.31;;;19.40;45.18
64388;BME280;50709;52.648;4.764;2023-05-02T12:03:28;102852.78;;;19.16;45.24
64388;BME280;50709;52.648;4.764;2023-05-02T12:05:55;102850.09;;;19.23;45.41
64388;BME280;50709;52.648;4.764;2023-05-02T12:08:23;102861.56;;;19.22;45.90
64388;BME280;50709;52.648;4.764;2023-05-02T12:10:49;102866.91;;;19.14;45.78
64388;BME280;50709;52.648;4.764;2023-05-02T12:13:19;102868.63;;;19.35;45.17
64388;BME280;50709;52.648;4.764;2023-05-02T12:15:44;102853.66;;;19.09;44.86
64388;BME280;50709;52.648;4.764;2023-05-02T12:18:11;102865.13;;;19.05;37.67
64388;BME280;50709;52.648;4.764;2023-05-02T12:20:36;102874.81;;;18.52;39.04
64388;BME280;50709;52.648;4.764;2023-05-02T12:23:04;102881.91;;;19.16;44.71
64388;BME280;50709;52.648;4.764;2023-05-02T12:25:40;102866.91;;;19.15;42.69
64388;BME280;50709;52.648;4.764;2023-05-02T12:28:07;102859.88;;;19.01;45.50
64388;BME280;50709;52.648;4.764;2023-05-02T12:30:33;102873.97;;;19.16;42.75
64388;BME280;50709;52.648;4.764;2023-05-02T12:33:03;102865.97;;;19.24;45.29
64388;BME280;50709;52.648;4.764;2023-05-02T12:35:30;102881.88;;;19.40;45.94
64388;BME280;50709;52.648;4.764;2023-05-02T12:38:09;102833.38;;;19.05;44.58
64388;BME280;50709;52.648;4.764;2023-05-02T12:40:35;102891.56;;;19.47;45.74
64388;BME280;50709;52.648;4.764;2023-05-02T12:43:02;102871.25;;;19.43;45.75
64388;BME280;50709;52.648;4.764;2023-05-02T12:45:29;102888.94;;;19.19;42.31
64388;BME280;50709;52.648;4.764;2023-05-02T12:48:16;102891.56;;;19.47;45.46
64388;BME280;50709;52.648;4.764;2023-05-02T12:50:41;102896.78;;;19.76;45.11
64388;BME280;50709;52.648;4.764;2023-05-02T12:53:07;102892.47;;;19.41;44.15
64388;BME280;50709;52.648;4.764;2023-05-02T12:55:33;102887.16;;;18.48;42.43
64388;BME280;50709;52.648;4.764;2023-05-02T12:57:59;102897.81;;;19.16;45.55
64388;BME280;50709;52.648;4.764;2023-05-02T13:00:25;102892.50;;;18.90;42.64
64388;BME280;50709;52.648;4.764;2023-05-02T13:02:50;102898.63;;;19.45;44.58
64388;BME280;50709;52.648;4.764;2023-05-02T13:05:17;102903.97;;;19.15;37.75
64388;BME280;50709;52.648;4.764;2023-05-02T13:07:43;102880.13;;;19.34;43.73
64388;BME280;50709;52.648;4.764;2023-05-02T13:10:09;102906.53;;;19.59;45.01
64388;BME280;50709;52.648;4.764;2023-05-02T13:12:35;102904.88;;;19.21;39.64
64388;BME280;50709;52.648;4.764;2023-05-02T13:15:06;102881.03;;;19.04;44.36
64388;BME280;50709;52.648;4.764;2023-05-02T13:17:32;102901.31;;;19.00;40.52
64388;BME280;50709;52.648;4.764;2023-05-02T13:19:57;102902.13;;;19.50;45.22
64388;BME280;50709;52.648;4.764;2023-05-02T13:22:23;102882.75;;;19.39;39.85
64388;BME280;50709;52.648;4.764;2023-05-02T13:24:49;102913.66;;;19.32;44.39
64388;BME280;50709;52.648;4.764;2023-05-02T13:27:15;102904.78;;;19.55;43.01
64388;BME280;50709;52.648;4.764;2023-05-02T13:29:43;102907.44;;;19.55;44.08
64388;BME280;50709;52.648;4.764;2023-05-02T13:32:08;102900.34;;;19.63;44.94
64388;BME280;50709;52.648;4.764;2023-05-02T13:34:34;102910.88;;;19.88;43.94